Ogden Hinckley Airport
KOGD : rendu visible

Aérodrome :











RETROUVEZ-NOUS SUR...

 
LOGIN :

S'inscrire | Disclaimer

   EN    FR    IT 

 









Légende :    VFR   VFR Marginal   IFR   IFR Intensif   IFR Très Intensif
Visi : 
Plafond : 
>= 8 km
>= 3000ft
5 à 8 km
1000 à 3000 ft
1500m à 5 km
500 à 1000 ft
800 à 1500m
200 à 500 ft
< 800m
< 200 ft
Symboles :   Orages  Brouillard  Fortes neiges  Fortes précipitations  Vent > 20 kt






- Altitude de l'aérodrome : 4473 ft


KOGD - Ogden Hinckley

DERNIER METAR :
  • 231053Z AUTO 19004KT 10SM CLR M01/M08 A2996 RMK AO2 SLP140 T10061078

METARs EXPIRÉS :
  • 230953Z AUTO 29006KT 10SM CLR 01/M07 A2996 RMK AO2 SLP138 T00111072
  • 230853Z AUTO 21003KT 10SM CLR 00/M08 A2996 RMK AO2 SLP143 T00001078 53001

TAF KOGD
Valide du 23 à 06h jusqu'au 24 à 06h UTC


230520Z 2306/2406 32007KT P6SM SCT080 BKN150
FM230700 VRB04KT P6SM SCT080 SCT120



MET'MAP, la Météo Aéronautique d'un coup d'oeil ! - Copyright ORBIFLY Décembre 2007 - Disclaimer

ORBIFLY MET'MAP TEAM :

Programmation & Développement : Alexandra Zaïnal
Sur une idée originale de : Baudouin d'Aumeries
Assistance à la programmation : Marc-Olivier Méhu
Soutien technique & logistique : Manuel Goepfert

Contact : metmap@orbifly.com




SOURCES & CREDITS :

   NOAA       Earth
Advisory